ABY151 EPWA-OMSJ
Flight info
| Callsign | ABY151 |
|---|---|
| Flight time | N/A |
| Altitude | 36000 |
| Route | XIMBA8G XIMBA DCT OMAVA N195 VENES M857 PODAN/N0458F350 DCT ROBTU DCT BADOR DCT LOMOS DCT WAK/N0455F370 DCT NIKTI DCT STINO DCT MES UL609 RDS UL995 VANZA DCT LAKTO L560 SERMA L550 KARIK B411 DEESA Y415 LOTOK P559 TOMSO/N0484F310 P559 KIVUS L305 EMOTA R784 GONVI GONVI4K |
| Aircraft | A20N/M-SDE2E3FGHIRWXY/LB1 |
Departure
| Time | 2026-04-30 18:27 |
|---|---|
| Airport | Warsaw Chopin Airport (EPWA) |
Arrival
| Time | N/A |
|---|---|
| Airport | Sharjah International Airport (OMSJ) |
| Time | Latitude | Longitude | Altitude | Speed | Heading |
|---|---|---|---|---|---|
| 2026-04-30 18:01 | 52.17000 | 20.96856 | 361 ft | 0 kts | 242° |
| 2026-04-30 18:22 | 52.16999 | 20.96854 | 361 ft | 0 kts | 242° |
| 2026-04-30 18:22 | 52.16989 | 20.96822 | 364 ft | 6 kts | 243° |
| 2026-04-30 18:23 | 52.16945 | 20.96794 | 365 ft | 9 kts | 172° |
| 2026-04-30 18:23 | 52.16898 | 20.96828 | 361 ft | 13 kts | 152° |
| 2026-04-30 18:23 | 52.16767 | 20.96943 | 361 ft | 19 kts | 151° |
| 2026-04-30 18:23 | 52.16670 | 20.97045 | 360 ft | 16 kts | 129° |
| 2026-04-30 18:24 | 52.16580 | 20.97353 | 363 ft | 19 kts | 115° |
| 2026-04-30 18:24 | 52.16536 | 20.97505 | 359 ft | 0 kts | 115° |
| 2026-04-30 18:24 | 52.16535 | 20.97510 | 359 ft | 3 kts | 115° |
| 2026-04-30 18:25 | 52.16510 | 20.97600 | 363 ft | 13 kts | 113° |
| 2026-04-30 18:25 | 52.16417 | 20.97807 | 359 ft | 9 kts | 186° |
| 2026-04-30 18:25 | 52.16345 | 20.97752 | 356 ft | 14 kts | 208° |
| 2026-04-30 18:26 | 52.16340 | 20.97547 | 361 ft | 12 kts | 293° |
| 2026-04-30 18:26 | 52.16426 | 20.97242 | 357 ft | 70 kts | 295° |
| 2026-04-30 18:26 | 52.16749 | 20.96090 | 369 ft | 149 kts | 295° |
| 2026-04-30 18:27 | 52.17658 | 20.92828 | 2077 ft | 159 kts | 297° |
| 2026-04-30 18:27 | 52.18143 | 20.91105 | 2909 ft | 175 kts | 296° |
| 2026-04-30 18:28 | 52.18069 | 20.86784 | 4318 ft | 218 kts | 260° |
| 2026-04-30 18:28 | 52.17692 | 20.84239 | 4962 ft | 242 kts | 259° |
| 2026-04-30 18:28 | 52.16815 | 20.78498 | 6206 ft | 273 kts | 258° |
| 2026-04-30 18:29 | 52.15919 | 20.75712 | 6812 ft | 286 kts | 231° |
| 2026-04-30 18:29 | 52.10316 | 20.73948 | 8560 ft | 296 kts | 149° |
| 2026-04-30 18:30 | 52.07503 | 20.78623 | 9787 ft | 291 kts | 121° |
| 2026-04-30 18:30 | 52.04872 | 20.83817 | 10976 ft | 313 kts | 128° |
| 2026-04-30 18:31 | 52.03302 | 20.86425 | 11569 ft | 333 kts | 130° |
| 2026-04-30 18:31 | 51.99785 | 20.91803 | 12764 ft | 355 kts | 132° |
| 2026-04-30 18:32 | 51.96109 | 20.97284 | 14003 ft | 362 kts | 132° |
| 2026-04-30 18:32 | 51.94244 | 21.00073 | 14581 ft | 366 kts | 131° |
| 2026-04-30 18:32 | 51.90486 | 21.05701 | 15721 ft | 372 kts | 131° |
| 2026-04-30 18:33 | 51.88606 | 21.08518 | 16301 ft | 375 kts | 131° |
| 2026-04-30 18:33 | 51.84739 | 21.14300 | 17504 ft | 381 kts | 130° |
| 2026-04-30 18:33 | 51.82782 | 21.17223 | 18144 ft | 385 kts | 130° |
| 2026-04-30 18:34 | 51.80807 | 21.20168 | 18768 ft | 388 kts | 130° |
| 2026-04-30 18:34 | 51.76803 | 21.26127 | 19891 ft | 394 kts | 130° |
| 2026-04-30 18:34 | 51.74793 | 21.29113 | 20464 ft | 396 kts | 129° |
| 2026-04-30 18:35 | 51.72737 | 21.32165 | 21058 ft | 399 kts | 129° |
| 2026-04-30 18:35 | 51.70688 | 21.35201 | 21661 ft | 402 kts | 129° |
| 2026-04-30 18:35 | 51.68641 | 21.38231 | 22267 ft | 405 kts | 129° |
| 2026-04-30 18:36 | 51.64231 | 21.44081 | 23536 ft | 422 kts | 139° |
| 2026-04-30 18:36 | 51.61697 | 21.46530 | 24148 ft | 429 kts | 141° |
| 2026-04-30 18:36 | 51.56514 | 21.51473 | 25262 ft | 435 kts | 140° |
| 2026-04-30 18:37 | 51.53907 | 21.53966 | 25834 ft | 437 kts | 140° |
| 2026-04-30 18:37 | 51.51284 | 21.56475 | 26419 ft | 439 kts | 139° |
| 2026-04-30 18:37 | 51.48654 | 21.58988 | 27015 ft | 441 kts | 139° |
| 2026-04-30 18:37 | 51.46019 | 21.61503 | 27623 ft | 441 kts | 139° |
| 2026-04-30 18:38 | 51.43376 | 21.64021 | 28246 ft | 441 kts | 139° |
| 2026-04-30 18:38 | 51.40735 | 21.66534 | 28886 ft | 441 kts | 139° |
| 2026-04-30 18:38 | 51.38104 | 21.69034 | 29531 ft | 439 kts | 138° |
| 2026-04-30 18:38 | 51.35481 | 21.71527 | 30200 ft | 437 kts | 138° |
| 2026-04-30 18:39 | 51.32867 | 21.74013 | 30802 ft | 435 kts | 138° |
| 2026-04-30 18:39 | 51.30296 | 21.76458 | 31369 ft | 433 kts | 139° |
| 2026-04-30 18:39 | 51.27712 | 21.78914 | 31954 ft | 431 kts | 139° |
| 2026-04-30 18:39 | 51.25145 | 21.81350 | 32547 ft | 427 kts | 140° |
| 2026-04-30 18:40 | 51.22599 | 21.83763 | 33148 ft | 423 kts | 140° |
| 2026-04-30 18:40 | 51.20079 | 21.86147 | 33777 ft | 419 kts | 140° |
| 2026-04-30 18:40 | 51.17533 | 21.88391 | 34399 ft | 420 kts | 148° |
| 2026-04-30 18:40 | 51.14772 | 21.89776 | 34930 ft | 426 kts | 163° |
| 2026-04-30 18:41 | 51.11754 | 21.90119 | 35259 ft | 436 kts | 179° |
| 2026-04-30 18:41 | 51.08751 | 21.89433 | 35364 ft | 446 kts | 187° |
| 2026-04-30 18:41 | 51.05667 | 21.88540 | 35370 ft | 455 kts | 187° |
| 2026-04-30 18:42 | 50.99292 | 21.86710 | 35369 ft | 474 kts | 187° |
| 2026-04-30 18:42 | 50.92662 | 21.84847 | 35373 ft | 492 kts | 187° |
| 2026-04-30 18:42 | 50.89255 | 21.83897 | 35367 ft | 501 kts | 187° |
| 2026-04-30 18:45 | 50.51502 | 21.73461 | 35368 ft | 500 kts | 187° |
| 2026-04-30 18:46 | 50.44664 | 21.71588 | 35371 ft | 500 kts | 187° |
| 2026-04-30 18:46 | 50.37804 | 21.69714 | 35366 ft | 499 kts | 187° |
| 2026-04-30 18:47 | 50.30961 | 21.67850 | 35367 ft | 499 kts | 187° |
| 2026-04-30 18:47 | 50.24161 | 21.66004 | 35365 ft | 498 kts | 187° |
| 2026-04-30 18:48 | 50.17328 | 21.64154 | 35359 ft | 498 kts | 187° |
| 2026-04-30 18:48 | 50.10495 | 21.62310 | 35360 ft | 497 kts | 187° |
| 2026-04-30 18:49 | 50.03680 | 21.60475 | 35356 ft | 496 kts | 187° |
| 2026-04-30 18:49 | 49.96868 | 21.58647 | 35353 ft | 496 kts | 187° |
| 2026-04-30 18:50 | 49.90116 | 21.56839 | 35356 ft | 495 kts | 187° |
| 2026-04-30 18:50 | 49.83329 | 21.55028 | 35359 ft | 494 kts | 187° |
| 2026-04-30 18:51 | 49.76550 | 21.53224 | 35355 ft | 494 kts | 187° |
| 2026-04-30 18:51 | 49.69777 | 21.51427 | 35351 ft | 493 kts | 187° |
| 2026-04-30 18:52 | 49.63046 | 21.49646 | 35353 ft | 492 kts | 187° |
| 2026-04-30 18:52 | 49.56247 | 21.47852 | 35354 ft | 494 kts | 188° |
| 2026-04-30 18:53 | 49.49397 | 21.46053 | 35351 ft | 510 kts | 188° |
| 2026-04-30 18:53 | 49.42310 | 21.45092 | 35355 ft | 513 kts | 172° |
| 2026-04-30 18:53 | 49.38802 | 21.46029 | 35350 ft | 511 kts | 160° |
| 2026-04-30 18:54 | 49.35490 | 21.47945 | 35356 ft | 507 kts | 150° |
| 2026-04-30 18:54 | 49.29135 | 21.52692 | 35355 ft | 510 kts | 150° |
| 2026-04-30 18:55 | 49.22769 | 21.57420 | 35353 ft | 512 kts | 150° |
| 2026-04-30 18:55 | 49.13103 | 21.64450 | 35355 ft | 513 kts | 151° |
| 2026-04-30 18:56 | 49.03410 | 21.71449 | 35350 ft | 513 kts | 151° |
| 2026-04-30 18:57 | 48.93715 | 21.78421 | 35350 ft | 513 kts | 152° |
| 2026-04-30 18:57 | 48.86935 | 21.81995 | 35348 ft | 519 kts | 165° |
| 2026-04-30 18:58 | 48.76252 | 21.84511 | 35343 ft | 520 kts | 169° |
| 2026-04-30 18:59 | 48.65505 | 21.86927 | 35340 ft | 520 kts | 169° |
| 2026-04-30 19:00 | 48.51195 | 21.90147 | 35332 ft | 520 kts | 169° |
| 2026-04-30 19:01 | 48.36877 | 21.93350 | 35335 ft | 519 kts | 169° |
| 2026-04-30 19:02 | 48.26203 | 21.95726 | 35337 ft | 519 kts | 170° |
| 2026-04-30 19:03 | 48.11905 | 21.98893 | 35335 ft | 518 kts | 170° |
| 2026-04-30 19:04 | 47.97689 | 22.02024 | 35346 ft | 518 kts | 170° |
| 2026-04-30 19:05 | 47.83432 | 22.05147 | 35335 ft | 517 kts | 171° |
| 2026-04-30 19:06 | 47.69191 | 22.08249 | 35330 ft | 516 kts | 171° |
| 2026-04-30 19:06 | 47.58532 | 22.10560 | 35326 ft | 516 kts | 171° |
| 2026-04-30 19:07 | 47.48055 | 22.13834 | 35324 ft | 515 kts | 167° |
| 2026-04-30 19:08 | 47.34064 | 22.18399 | 35319 ft | 514 kts | 167° |
| 2026-04-30 19:09 | 47.23574 | 22.21794 | 35319 ft | 514 kts | 167° |
| 2026-04-30 19:09 | 47.16629 | 22.24033 | 35317 ft | 514 kts | 167° |
| 2026-04-30 19:10 | 47.02656 | 22.28521 | 35314 ft | 514 kts | 167° |
| 2026-04-30 19:11 | 46.92184 | 22.31868 | 35316 ft | 513 kts | 167° |
| 2026-04-30 19:12 | 46.86376 | 22.33719 | 35315 ft | 513 kts | 167° |
| 2026-04-30 19:12 | 46.79390 | 22.35940 | 35315 ft | 513 kts | 168° |
| 2026-04-30 19:13 | 46.65438 | 22.40358 | 35320 ft | 513 kts | 168° |
| 2026-04-30 19:14 | 46.58463 | 22.42558 | 35317 ft | 513 kts | 168° |
| 2026-04-30 19:14 | 46.51483 | 22.44753 | 35322 ft | 513 kts | 168° |
| 2026-04-30 19:15 | 46.44504 | 22.46943 | 35320 ft | 513 kts | 168° |
| 2026-04-30 19:15 | 46.37712 | 22.49069 | 35317 ft | 491 kts | 168° |
| 2026-04-30 19:15 | 46.34352 | 22.50119 | 35318 ft | 497 kts | 168° |
| 2026-04-30 19:16 | 46.27533 | 22.52243 | 35316 ft | 505 kts | 168° |
| 2026-04-30 19:17 | 46.17167 | 22.55464 | 35315 ft | 510 kts | 168° |
| 2026-04-30 19:17 | 46.06726 | 22.58696 | 35317 ft | 512 kts | 169° |
| 2026-04-30 19:18 | 45.96438 | 22.61871 | 35317 ft | 480 kts | 169° |
| 2026-04-30 19:18 | 45.93228 | 22.62860 | 35316 ft | 466 kts | 169° |
| 2026-04-30 19:19 | 45.90049 | 22.63835 | 35317 ft | 470 kts | 169° |
| 2026-04-30 19:19 | 45.80431 | 22.66780 | 35319 ft | 472 kts | 169° |
| 2026-04-30 19:20 | 45.74002 | 22.68744 | 35317 ft | 472 kts | 169° |
| 2026-04-30 19:21 | 45.64371 | 22.71679 | 35328 ft | 472 kts | 169° |
| 2026-04-30 19:22 | 45.51517 | 22.75579 | 35327 ft | 471 kts | 169° |
| 2026-04-30 19:23 | 45.32344 | 22.81365 | 35342 ft | 470 kts | 170° |
| 2026-04-30 19:24 | 45.22753 | 22.84243 | 35345 ft | 469 kts | 170° |
| 2026-04-30 19:25 | 45.06793 | 22.89012 | 35362 ft | 468 kts | 171° |
| 2026-04-30 19:26 | 44.94078 | 22.92791 | 35368 ft | 467 kts | 171° |
| 2026-04-30 19:27 | 44.84523 | 22.95620 | 35362 ft | 467 kts | 171° |
| 2026-04-30 19:28 | 44.74974 | 22.98437 | 35363 ft | 466 kts | 171° |
| 2026-04-30 19:29 | 44.62301 | 23.02160 | 35361 ft | 466 kts | 171° |
| 2026-04-30 19:30 | 44.49616 | 23.05872 | 35354 ft | 466 kts | 172° |
| 2026-04-30 19:31 | 44.36932 | 23.09566 | 35353 ft | 465 kts | 172° |
| 2026-04-30 19:31 | 44.27414 | 23.12328 | 35348 ft | 465 kts | 172° |
| 2026-04-30 19:32 | 44.21069 | 23.14164 | 35345 ft | 465 kts | 172° |